createdAt,value
2023-03-28T00:01:47.840Z,6.63
2023-03-28T00:04:22.969Z,13.35
2023-03-28T00:06:55.721Z,9.73
2023-03-28T00:09:26.338Z,14.15
2023-03-28T00:11:56.105Z,10.05
2023-03-28T00:14:26.090Z,11.18
2023-03-28T00:16:55.740Z,9.05
2023-03-28T00:19:25.506Z,11.50
2023-03-28T00:21:57.789Z,7.53
2023-03-28T00:24:28.172Z,15.10
2023-03-28T00:27:00.598Z,12.65
2023-03-28T00:29:30.342Z,8.32
2023-03-28T00:32:00.554Z,13.90
2023-03-28T00:34:30.763Z,7.68
2023-03-28T00:37:05.588Z,8.75
2023-03-28T00:39:35.302Z,9.93
2023-03-28T00:42:05.264Z,10.07
2023-03-28T00:44:50.401Z,13.57
2023-03-28T00:47:28.704Z,5.63
2023-03-28T00:50:03.174Z,10.18
2023-03-28T00:52:40.235Z,10.77
2023-03-28T00:55:15.215Z,5.63
2023-03-28T00:57:46.608Z,8.80
2023-03-28T01:00:19.153Z,9.98
2023-03-28T01:02:53.551Z,7.22
2023-03-28T01:05:29.316Z,7.57
2023-03-28T01:08:08.968Z,10.80
2023-03-28T01:10:39.336Z,8.23
2023-03-28T01:13:11.699Z,5.95
2023-03-28T01:15:42.346Z,12.20
2023-03-28T01:18:13.558Z,6.75
2023-03-28T01:21:21.746Z,11.85
2023-03-28T01:24:25.977Z,12.95
2023-03-28T01:26:58.732Z,17.00
2023-03-28T01:30:03.673Z,11.82
2023-03-28T01:33:15.200Z,9.27
2023-03-28T01:36:14.229Z,12.00
2023-03-28T01:39:13.642Z,10.75
2023-03-28T01:41:50.529Z,15.38
2023-03-28T01:44:31.522Z,11.65
2023-03-28T01:47:08.050Z,8.13
2023-03-28T01:49:47.423Z,10.57
2023-03-28T01:52:23.208Z,12.95
2023-03-28T01:55:03.384Z,11.68
2023-03-28T01:57:36.962Z,10.30
2023-03-28T02:00:15.780Z,10.23
2023-03-28T02:03:11.484Z,10.93
2023-03-28T02:05:48.626Z,10.82
2023-03-28T02:08:21.728Z,14.05
2023-03-28T02:10:59.198Z,11.63
2023-03-28T02:13:38.984Z,5.72
2023-03-28T02:16:37.273Z,8.75
2023-03-28T02:19:27.279Z,7.85
2023-03-28T02:22:17.910Z,8.77
2023-03-28T02:24:51.967Z,7.95
2023-03-28T02:27:51.327Z,7.63
2023-03-28T02:30:32.936Z,8.02
2023-03-28T02:33:03.830Z,6.68
2023-03-28T02:35:45.784Z,8.07
2023-03-28T02:38:26.459Z,7.95
2023-03-28T02:41:09.912Z,7.10
2023-03-28T02:43:57.534Z,7.88
2023-03-28T02:46:33.087Z,4.35
2023-03-28T02:49:27.162Z,5.90
2023-03-28T02:52:08.733Z,7.10
2023-03-28T02:54:45.837Z,7.07
2023-03-28T02:57:36.661Z,9.98
2023-03-28T03:00:16.103Z,6.38
2023-03-28T03:02:48.213Z,6.00
2023-03-28T03:05:20.320Z,7.45
2023-03-28T03:07:50.371Z,8.02
2023-03-28T03:10:22.168Z,8.98
2023-03-28T03:12:52.078Z,6.85
2023-03-28T03:15:26.079Z,5.45
2023-03-28T03:18:00.169Z,8.23
2023-03-28T03:20:34.043Z,7.85
2023-03-28T03:23:06.448Z,9.90
2023-03-28T03:25:37.940Z,10.27
2023-03-28T03:28:33.799Z,4.00
2023-03-28T03:31:09.514Z,9.02
2023-03-28T03:33:57.913Z,9.05
2023-03-28T03:36:33.264Z,9.02
2023-03-28T03:39:03.826Z,10.77
2023-03-28T03:41:33.740Z,8.98
2023-03-28T03:44:03.437Z,10.75
2023-03-28T03:46:36.001Z,12.82
2023-03-28T03:49:06.110Z,8.88
2023-03-28T03:51:36.322Z,10.30
2023-03-28T03:54:06.603Z,9.95
2023-03-28T03:56:39.644Z,11.32
2023-03-28T03:59:09.553Z,5.78
2023-03-28T04:01:44.305Z,6.63
2023-03-28T04:04:37.508Z,6.68
2023-03-28T04:07:25.403Z,12.88
2023-03-28T04:09:57.738Z,9.95
2023-03-28T04:12:30.360Z,9.80
2023-03-28T04:15:00.172Z,4.93
2023-03-28T04:18:03.823Z,8.77
2023-03-28T04:20:41.549Z,11.05
2023-03-28T04:23:12.111Z,14.15
2023-03-28T04:25:43.754Z,10.55
2023-03-28T04:28:31.529Z,9.88
2023-03-28T04:31:07.571Z,12.55
2023-03-28T04:34:00.602Z,11.25
2023-03-28T04:39:06.521Z,14.48
2023-03-28T04:41:48.276Z,10.35
2023-03-28T04:44:41.193Z,7.30
2023-03-28T04:47:13.543Z,13.75
2023-03-28T04:49:46.329Z,9.23
2023-03-28T04:52:16.288Z,10.77
2023-03-28T04:54:48.571Z,5.88
2023-03-28T04:57:19.542Z,10.32
2023-03-28T04:59:54.742Z,10.85
2023-03-28T05:02:44.505Z,6.13
2023-03-28T05:05:19.204Z,9.40
2023-03-28T05:07:49.078Z,7.15
2023-03-28T05:10:22.774Z,13.52
2023-03-28T05:12:53.862Z,9.75
2023-03-28T05:15:25.438Z,9.57
2023-03-28T05:18:03.492Z,7.88
2023-03-28T05:20:38.807Z,9.88
2023-03-28T05:23:08.856Z,11.40
2023-03-28T05:25:41.898Z,8.35
2023-03-28T05:28:12.805Z,9.05
2023-03-28T05:30:51.005Z,8.95
2023-03-28T05:33:21.124Z,11.50
2023-03-28T05:35:54.730Z,6.95
2023-03-28T05:38:24.643Z,9.13
2023-03-28T05:40:59.454Z,11.73
2023-03-28T05:43:29.345Z,11.10
2023-03-28T05:45:59.387Z,13.40
2023-03-28T05:48:37.022Z,9.27
2023-03-28T05:51:09.852Z,11.85
2023-03-28T05:53:39.587Z,12.55
2023-03-28T05:56:12.982Z,11.48
2023-03-28T05:58:43.047Z,10.13
2023-03-28T06:01:12.954Z,5.93
2023-03-28T06:03:42.864Z,11.05
2023-03-28T06:06:15.446Z,9.10
2023-03-28T06:08:45.220Z,8.95
2023-03-28T06:11:15.517Z,9.02
2023-03-28T06:13:54.223Z,9.88
2023-03-28T06:16:30.578Z,8.27
2023-03-28T06:19:16.615Z,12.10
2023-03-28T06:21:55.101Z,8.02
2023-03-28T06:24:24.971Z,13.68
2023-03-28T06:26:54.721Z,11.23
2023-03-28T06:29:27.045Z,14.38
2023-03-28T06:32:04.393Z,10.52
2023-03-28T06:34:34.090Z,5.53
2023-03-28T06:37:07.598Z,14.07
2023-03-28T06:39:53.346Z,6.10
2023-03-28T06:42:23.484Z,9.85
2023-03-28T06:45:07.376Z,7.43
2023-03-28T06:47:45.678Z,12.88
2023-03-28T06:50:15.692Z,9.73
2023-03-28T06:53:04.316Z,11.88
2023-03-28T06:58:03.972Z,8.15
2023-03-28T07:00:43.750Z,12.40
2023-03-28T07:03:36.594Z,12.88
2023-03-28T07:06:10.197Z,11.32
2023-03-28T07:08:42.471Z,8.93
2023-03-28T07:11:12.318Z,14.38
2023-03-28T07:13:44.275Z,6.95
2023-03-28T07:18:46.418Z,8.15
2023-03-28T07:21:22.734Z,11.82
2023-03-28T07:23:55.085Z,10.27
2023-03-28T07:26:32.623Z,9.93
2023-03-28T07:29:02.363Z,11.82
2023-03-28T07:31:32.258Z,7.65
2023-03-28T07:34:02.621Z,11.70
2023-03-28T07:36:32.514Z,12.60
2023-03-28T07:39:13.720Z,11.32
2023-03-28T07:41:43.493Z,10.45
2023-03-28T07:44:13.318Z,6.07
2023-03-28T07:46:43.428Z,11.45
2023-03-28T07:49:15.524Z,8.95
2023-03-28T07:51:45.523Z,8.55
2023-03-28T07:54:18.250Z,9.93
2023-03-28T07:56:50.537Z,11.70
2023-03-28T07:59:40.726Z,28.10
2023-03-28T08:02:15.874Z,8.43
2023-03-28T08:04:46.256Z,11.88
2023-03-28T08:07:19.041Z,11.88
2023-03-28T08:09:52.481Z,11.32
2023-03-28T08:12:26.537Z,10.95
2023-03-28T08:14:56.506Z,18.08
2023-03-28T08:17:27.173Z,8.13
2023-03-28T08:19:59.029Z,10.65
2023-03-28T08:22:31.587Z,14.68
2023-03-28T08:25:39.067Z,11.55
2023-03-28T08:28:10.145Z,11.65
2023-03-28T08:30:40.249Z,9.30
2023-03-28T08:33:10.278Z,8.52
2023-03-28T08:35:41.858Z,11.98
2023-03-28T08:38:18.706Z,11.60
2023-03-28T08:41:02.308Z,11.85
2023-03-28T08:44:11.717Z,5.68
2023-03-28T08:46:44.838Z,9.85
2023-03-28T08:49:19.264Z,12.30
2023-03-28T08:51:52.930Z,10.95
2023-03-28T08:54:29.134Z,11.68
2023-03-28T08:57:06.515Z,9.18
2023-03-28T08:59:45.061Z,11.52
2023-03-28T09:02:20.099Z,15.30
2023-03-28T09:07:30.937Z,9.90
2023-03-28T09:10:12.253Z,11.82
2023-03-28T09:13:09.792Z,13.85
2023-03-28T09:18:52.212Z,12.77
2023-03-28T09:21:31.322Z,12.50
2023-03-28T09:24:14.489Z,8.57
2023-03-28T09:27:07.613Z,6.75
2023-03-28T09:29:45.964Z,8.57
2023-03-28T09:32:23.453Z,11.95
2023-03-28T09:34:55.051Z,12.00
2023-03-28T09:37:38.202Z,9.95
2023-03-28T09:40:20.960Z,9.02
2023-03-28T09:43:18.904Z,11.00
2023-03-28T09:46:08.661Z,12.75
2023-03-28T09:48:51.505Z,9.82
2023-03-28T09:51:25.471Z,13.10
2023-03-28T09:53:56.009Z,9.45
2023-03-28T09:56:30.031Z,7.25
2023-03-28T09:59:14.849Z,12.63
2023-03-28T10:01:54.734Z,4.97
2023-03-28T10:04:36.511Z,8.75
2023-03-28T10:07:22.453Z,5.75
2023-03-28T10:10:03.622Z,11.10
2023-03-28T10:12:36.752Z,8.32
2023-03-28T10:15:09.786Z,10.07
2023-03-28T10:18:03.237Z,13.18
2023-03-28T10:20:40.368Z,12.77
2023-03-28T10:23:10.568Z,10.10
2023-03-28T10:25:44.599Z,8.63
2023-03-28T10:28:19.131Z,8.75
2023-03-28T10:30:57.654Z,9.50
2023-03-28T10:33:35.839Z,27.00
2023-03-28T10:36:29.603Z,10.18
2023-03-28T10:39:02.527Z,5.03
2023-03-28T10:41:59.719Z,5.30
2023-03-28T10:45:02.650Z,13.00
2023-03-28T10:47:37.421Z,12.60
2023-03-28T10:50:23.946Z,7.63
2023-03-28T10:52:58.761Z,11.18
2023-03-28T10:55:41.396Z,7.90
2023-03-28T10:58:29.015Z,7.85
2023-03-28T11:01:08.014Z,12.98
2023-03-28T11:04:04.696Z,21.02
2023-03-28T11:09:22.452Z,4.32
2023-03-28T11:12:28.386Z,10.18
2023-03-28T11:15:09.471Z,6.25
2023-03-28T11:17:58.731Z,6.63
2023-03-28T11:20:36.158Z,8.02
2023-03-28T11:23:46.217Z,7.03
2023-03-28T11:26:50.292Z,9.25
2023-03-28T11:29:51.612Z,12.57
2023-03-28T11:32:30.546Z,9.25
2023-03-28T11:35:08.005Z,13.98
2023-03-28T11:37:44.828Z,6.93
2023-03-28T11:40:25.700Z,5.65
2023-03-28T11:43:11.682Z,7.40
2023-03-28T11:48:33.258Z,13.65
2023-03-28T11:51:12.919Z,11.75
2023-03-28T11:53:55.931Z,14.50
2023-03-28T11:56:44.718Z,5.30
2023-03-28T11:59:23.076Z,6.85
2023-03-28T12:04:31.853Z,7.50
2023-03-28T12:07:13.150Z,11.63
2023-03-28T12:10:03.889Z,6.30
2023-03-28T12:12:41.674Z,27.40
2023-03-28T12:15:17.355Z,6.15
2023-03-28T12:18:15.653Z,5.05
2023-03-28T12:20:56.338Z,7.40
2023-03-28T12:23:40.687Z,9.50
2023-03-28T12:26:34.066Z,7.15
2023-03-28T12:29:17.578Z,6.05
2023-03-28T12:31:54.176Z,4.82
2023-03-28T12:34:32.813Z,6.65
2023-03-28T12:37:33.423Z,6.50
2023-03-28T12:40:20.054Z,7.45
2023-03-28T12:42:51.713Z,12.35
2023-03-28T12:45:41.404Z,5.07
2023-03-28T12:48:16.385Z,5.68
2023-03-28T12:50:52.290Z,6.97
2023-03-28T12:53:24.377Z,6.45
2023-03-28T12:55:55.561Z,11.25
2023-03-28T12:58:30.146Z,6.45
2023-03-28T13:01:30.593Z,4.88
2023-03-28T13:04:31.362Z,9.90
2023-03-28T13:07:26.286Z,8.63
2023-03-28T13:10:02.597Z,8.77
2023-03-28T13:12:49.492Z,8.95
2023-03-28T13:15:31.802Z,10.70
2023-03-28T13:18:31.747Z,7.80
2023-03-28T13:21:04.525Z,6.63
2023-03-28T13:23:38.352Z,5.18
2023-03-28T13:26:09.745Z,8.65
2023-03-28T13:28:46.657Z,5.05
2023-03-28T13:31:24.809Z,9.80
2023-03-28T13:34:02.015Z,6.60
2023-03-28T13:36:34.905Z,4.80
2023-03-28T13:39:24.392Z,7.45
2023-03-28T13:42:02.976Z,5.90
2023-03-28T13:44:44.657Z,9.05
2023-03-28T13:47:25.510Z,7.93
2023-03-28T13:50:03.972Z,4.80
2023-03-28T13:52:33.799Z,7.03
2023-03-28T13:55:04.849Z,5.35
2023-03-28T13:57:34.633Z,5.10
2023-03-28T14:00:08.064Z,9.70
2023-03-28T14:02:46.639Z,5.78
2023-03-28T14:05:22.964Z,5.82
2023-03-28T14:07:54.523Z,5.85
2023-03-28T14:10:33.356Z,6.78
2023-03-28T14:13:07.302Z,5.68
2023-03-28T14:15:39.989Z,9.10
2023-03-28T14:18:14.991Z,8.50
2023-03-28T14:20:48.315Z,6.30
2023-03-28T14:23:31.588Z,8.35
2023-03-28T14:26:04.168Z,5.43
2023-03-28T14:28:42.857Z,6.35
2023-03-28T14:31:16.503Z,6.30
2023-03-28T14:33:47.943Z,10.05
2023-03-28T14:36:21.233Z,5.88
2023-03-28T14:38:51.244Z,4.18
2023-03-28T14:41:27.697Z,8.57
2023-03-28T14:43:59.486Z,8.32
2023-03-28T14:46:31.555Z,6.63
2023-03-28T14:49:03.914Z,5.53
2023-03-28T14:51:46.112Z,7.55
2023-03-28T14:54:18.482Z,4.97
2023-03-28T14:56:49.512Z,3.97
2023-03-28T14:59:21.002Z,5.18
2023-03-28T15:01:52.828Z,7.93
2023-03-28T15:04:25.284Z,7.05
2023-03-28T15:07:01.249Z,5.70
2023-03-28T15:09:36.588Z,13.35
2023-03-28T15:12:09.672Z,5.32
2023-03-28T15:14:44.560Z,8.63
2023-03-28T15:17:21.043Z,12.48
2023-03-28T15:19:56.106Z,7.38
2023-03-28T15:22:33.688Z,4.07
2023-03-28T15:25:03.517Z,4.65
2023-03-28T15:27:37.202Z,9.70
2023-03-28T15:30:09.981Z,7.47
2023-03-28T15:32:39.758Z,6.07
2023-03-28T15:35:26.546Z,6.68
2023-03-28T15:38:08.307Z,4.78
2023-03-28T15:40:43.463Z,8.63
2023-03-28T15:43:32.060Z,7.43
2023-03-28T15:46:04.171Z,4.80
2023-03-28T15:48:36.865Z,5.05
2023-03-28T15:51:09.024Z,5.28
2023-03-28T15:53:44.221Z,5.30
2023-03-28T15:56:28.077Z,5.25
2023-03-28T15:59:01.906Z,5.15
2023-03-28T16:01:33.282Z,5.10
2023-03-28T16:04:25.680Z,5.85
2023-03-28T16:06:58.721Z,4.15
2023-03-28T16:09:31.032Z,4.18
2023-03-28T16:12:02.774Z,5.72
2023-03-28T16:15:08.982Z,6.00
2023-03-28T16:18:01.596Z,8.38
2023-03-28T16:20:49.296Z,5.78
2023-03-28T16:23:19.075Z,5.18
2023-03-28T16:25:51.553Z,7.60
2023-03-28T16:28:21.736Z,4.43
2023-03-28T16:30:53.101Z,6.65
2023-03-28T16:33:22.908Z,4.25
2023-03-28T16:35:52.737Z,8.23
2023-03-28T16:38:22.511Z,5.65
2023-03-28T16:40:54.744Z,7.88
2023-03-28T16:43:24.446Z,10.70
2023-03-28T16:45:54.194Z,16.50
2023-03-28T16:48:23.884Z,25.65
2023-03-28T16:50:58.948Z,6.18
2023-03-28T16:53:29.115Z,6.13
2023-03-28T16:56:01.813Z,9.52
2023-03-28T16:58:31.946Z,9.90
2023-03-28T17:01:07.137Z,5.55
2023-03-28T17:03:37.281Z,8.23
2023-03-28T17:06:09.323Z,9.60
2023-03-28T17:08:39.912Z,8.00
2023-03-28T17:11:14.747Z,8.35
2023-03-28T17:13:47.661Z,8.15
2023-03-28T17:16:17.389Z,7.13
2023-03-28T17:18:47.345Z,5.28
2023-03-28T17:21:18.882Z,14.40
2023-03-28T17:23:51.126Z,7.32
2023-03-28T17:26:23.474Z,8.45
2023-03-28T17:28:53.241Z,11.32
2023-03-28T17:31:23.609Z,9.18
2023-03-28T17:33:53.450Z,13.35
2023-03-28T17:36:25.838Z,11.57
2023-03-28T17:38:58.164Z,11.55
2023-03-28T17:41:31.964Z,10.93
2023-03-28T17:44:02.482Z,8.43
2023-03-28T17:46:32.202Z,14.82
2023-03-28T17:49:01.972Z,30.50
2023-03-28T17:51:31.739Z,24.02
2023-03-28T17:54:01.532Z,22.17
2023-03-28T17:56:33.793Z,41.60
2023-03-28T17:59:04.148Z,27.88
2023-03-28T18:01:34.346Z,21.38
2023-03-28T18:04:04.340Z,17.80
2023-03-28T18:06:59.968Z,20.83
2023-03-28T18:09:30.331Z,31.42
2023-03-28T18:12:03.244Z,41.03
2023-03-28T18:14:32.959Z,10.20
2023-03-28T18:17:03.725Z,9.00
2023-03-28T18:19:34.083Z,5.95
2023-03-28T18:22:03.821Z,21.35
2023-03-28T18:24:34.300Z,27.73
2023-03-28T18:27:06.762Z,18.58
2023-03-28T18:29:36.554Z,9.80
2023-03-28T18:32:06.642Z,12.60
2023-03-28T18:34:36.354Z,12.35
2023-03-28T18:37:06.714Z,11.10
2023-03-28T18:39:36.458Z,15.57
2023-03-28T18:42:09.216Z,8.85
2023-03-28T18:44:40.958Z,23.08
2023-03-28T18:47:10.926Z,52.83
2023-03-28T18:49:41.105Z,52.47
2023-03-28T18:52:11.576Z,45.17
2023-03-28T18:54:45.981Z,28.00
2023-03-28T18:57:18.725Z,18.27
2023-03-28T18:59:48.591Z,15.63
2023-03-28T19:02:18.351Z,6.57
2023-03-28T19:04:49.516Z,6.30
2023-03-28T19:07:21.123Z,9.73
2023-03-28T19:09:53.751Z,5.70
2023-03-28T19:12:27.192Z,9.02
2023-03-28T19:14:56.992Z,13.93
2023-03-28T19:17:27.297Z,8.18
2023-03-28T19:19:57.173Z,5.03
2023-03-28T19:22:27.519Z,6.40
2023-03-28T19:24:57.302Z,7.07
2023-03-28T19:27:29.745Z,7.00
2023-03-28T19:29:59.567Z,7.25
2023-03-28T19:32:30.759Z,6.70
2023-03-28T19:35:00.536Z,7.68
2023-03-28T19:37:30.331Z,5.60
2023-03-28T19:40:01.781Z,9.18
2023-03-28T19:42:35.052Z,7.03
2023-03-28T19:45:04.954Z,7.78
2023-03-28T19:47:34.663Z,5.75
2023-03-28T19:50:04.542Z,7.03
2023-03-28T19:52:34.248Z,5.18
2023-03-28T19:55:04.287Z,9.35
2023-03-28T19:57:36.526Z,5.03
2023-03-28T20:00:06.978Z,5.10
2023-03-28T20:02:42.357Z,4.53
2023-03-28T20:05:12.571Z,4.93
2023-03-28T20:07:42.257Z,6.32
2023-03-28T20:10:12.896Z,12.73
2023-03-28T20:12:45.142Z,9.05
2023-03-28T20:15:14.879Z,10.43
2023-03-28T20:17:44.562Z,6.45
2023-03-28T20:20:15.433Z,9.05
2023-03-28T20:22:45.161Z,6.88
2023-03-28T20:25:14.859Z,8.90
2023-03-28T20:27:47.729Z,31.52
2023-03-28T20:30:17.796Z,35.50
2023-03-28T20:32:49.641Z,43.40
2023-03-28T20:35:19.570Z,22.63
2023-03-28T20:37:49.309Z,8.48
2023-03-28T20:40:19.002Z,10.98
2023-03-28T20:42:52.631Z,12.63
2023-03-28T20:45:24.866Z,21.27
2023-03-28T20:47:58.752Z,7.03
2023-03-28T20:50:34.036Z,6.97
2023-03-28T20:53:04.262Z,4.85
2023-03-28T20:55:34.866Z,23.27
2023-03-28T20:58:08.947Z,51.83
2023-03-28T21:00:39.950Z,13.23
2023-03-28T21:03:11.475Z,18.23
2023-03-28T21:05:46.244Z,12.15
2023-03-28T21:08:19.731Z,27.38
2023-03-28T21:10:54.722Z,39.28
2023-03-28T21:13:27.268Z,70.83
2023-03-28T21:15:57.599Z,60.40
2023-03-28T21:18:28.226Z,12.38
2023-03-28T21:20:58.256Z,13.55
2023-03-28T21:23:28.048Z,12.82
2023-03-28T21:25:57.875Z,6.93
2023-03-28T21:28:30.126Z,14.50
2023-03-28T21:31:01.047Z,8.55
2023-03-28T21:33:31.478Z,6.75
2023-03-28T21:36:01.180Z,7.78
2023-03-28T21:38:31.200Z,7.03
2023-03-28T21:41:01.339Z,7.57
2023-03-28T21:43:34.106Z,9.27
2023-03-28T21:46:04.191Z,12.27
2023-03-28T21:48:34.580Z,7.18
2023-03-28T21:51:06.176Z,8.05
2023-03-28T21:53:37.751Z,5.55
2023-03-28T21:56:10.477Z,9.68
2023-03-28T21:58:43.376Z,6.90
2023-03-28T22:01:15.375Z,6.30
2023-03-28T22:03:45.815Z,7.97
2023-03-28T22:06:16.855Z,7.95
2023-03-28T22:08:52.196Z,6.30
2023-03-28T22:11:28.317Z,5.60
2023-03-28T22:14:05.084Z,6.10
2023-03-28T22:16:37.474Z,4.95
2023-03-28T22:19:08.809Z,5.63
2023-03-28T22:21:39.737Z,5.00
2023-03-28T22:24:13.375Z,6.82
2023-03-28T22:26:45.179Z,7.47
2023-03-28T22:29:17.664Z,7.45
2023-03-28T22:31:47.517Z,6.03
2023-03-28T22:34:17.901Z,9.38
2023-03-28T22:36:49.580Z,4.65
2023-03-28T22:39:21.818Z,4.68
2023-03-28T22:41:54.189Z,5.20
2023-03-28T22:44:27.396Z,13.70
2023-03-28T22:47:02.158Z,4.80
2023-03-28T22:49:32.342Z,8.48
2023-03-28T22:52:02.673Z,4.57
2023-03-28T22:54:32.880Z,6.80
2023-03-28T22:57:04.362Z,7.88
2023-03-28T22:59:36.701Z,7.97
2023-03-28T23:02:07.211Z,7.03
2023-03-28T23:04:37.143Z,4.55
2023-03-28T23:07:06.963Z,4.45
2023-03-28T23:09:37.748Z,8.95
2023-03-28T23:12:08.186Z,8.85
2023-03-28T23:14:40.842Z,6.82
2023-03-28T23:17:11.186Z,6.40
2023-03-28T23:19:40.904Z,5.15
2023-03-28T23:22:10.583Z,3.75
2023-03-28T23:24:40.336Z,3.72
2023-03-28T23:27:10.000Z,4.93
2023-03-28T23:29:42.292Z,9.57
2023-03-28T23:32:12.165Z,5.43
2023-03-28T23:34:42.304Z,3.50
2023-03-28T23:37:14.127Z,6.82
2023-03-28T23:39:44.841Z,5.85
2023-03-28T23:42:14.648Z,5.68
2023-03-28T23:44:46.907Z,6.18
2023-03-28T23:47:17.022Z,5.47
2023-03-28T23:49:47.003Z,6.78
2023-03-28T23:52:19.449Z,4.85
2023-03-28T23:54:49.174Z,7.38
2023-03-28T23:57:19.047Z,7.07
2023-03-28T23:59:51.340Z,3.83
